Time;durP1;ratioP1;P1;durP2;ratioP2;P2;SDS_P1;SDS_P2;PMS_P1;PMS_P2;Temp;Humidity;BMP_temperature;BMP_pressure;BME280_temperature;BME280_humidity;BME280_pressure;Samples;Min_cycle;Max_cycle;Signal;HPM_P1;HPM_P2
2022/02/10 00:24:46;;;;;;;;;;;;;;;30.13;16.27;101873.66;5076440;28;1063;-43
2022/02/10 00:35:33;;;;;;;;;;;;;;;29.98;16.94;101867.31;5071695;28;815;-43
2022/02/10 00:37:59;;;;;;;;;;;;;;;30.20;16.63;101862.97;5076158;28;821;-44
2022/02/10 00:40:27;;;;;;;;;;;;;;;29.82;17.09;101864.47;5075646;28;845;-44
2022/02/10 00:42:53;;;;;;;;;;;;;;;29.72;17.15;101871.94;5070912;28;879;-44
2022/02/10 00:45:19;;;;;;;;;;;;;;;29.66;17.24;101881.63;5076346;28;754;-44
2022/02/10 00:47:54;;;;;;;;;;;;;;;29.66;17.16;101870.75;5075145;28;879;-43
2022/02/10 00:50:19;;;;;;;;;;;;;;;29.68;17.21;101873.31;5075545;28;1898;-43
2022/02/10 00:52:46;;;;;;;;;;;;;;;29.51;17.42;101867.88;5076117;28;880;-43
2022/02/10 00:55:14;;;;;;;;;;;;;;;29.70;17.23;101869.41;5076110;28;861;-44
2022/02/10 00:57:39;;;;;;;;;;;;;;;29.80;16.92;101866.50;5075181;28;894;-43
2022/02/10 01:02:18;;;;;;;;;;;;;;;29.89;16.91;101866.47;5072123;28;801;-43
2022/02/10 01:11:27;;;;;;;;;;;;;;;29.42;17.20;101872.50;5074602;28;1910;-43
2022/02/10 01:24:33;;;;;;;;;;;;;;;29.57;17.23;101867.22;5075385;28;1062;-44
2022/02/10 01:29:44;;;;;;;;;;;;;;;29.86;16.92;101864.97;5075501;28;723;-43
2022/02/10 01:32:10;;;;;;;;;;;;;;;29.77;16.91;101866.84;5075437;28;1897;-44
2022/02/10 01:34:42;;;;;;;;;;;;;;;29.79;16.83;101867.53;5075223;28;829;-43
2022/02/10 01:37:08;;;;;;;;;;;;;;;29.72;16.79;101865.66;5073559;28;797;-43
2022/02/10 01:39:40;;;;;;;;;;;;;;;29.72;16.98;101877.38;5070704;28;916;-43
2022/02/10 01:42:54;;;;;;;;;;;;;;;29.80;16.89;101879.22;5075396;28;865;-43
2022/02/10 02:04:20;;;;;;;;;;;;;;;29.86;16.92;101877.69;5071912;28;705;-44
2022/02/10 02:06:47;;;;;;;;;;;;;;;29.88;17.03;101871.03;5079215;28;842;-43
2022/02/10 02:09:14;;;;;;;;;;;;;;;29.96;17.14;101869.34;5079102;28;849;-45
2022/02/10 02:11:40;;;;;;;;;;;;;;;29.94;17.07;101873.09;5078747;28;1897;-43
2022/02/10 02:14:09;;;;;;;;;;;;;;;30.04;16.87;101872.88;5079067;28;1036;-43
2022/02/10 02:16:34;;;;;;;;;;;;;;;30.05;16.92;101877.25;5078754;28;917;-43
2022/02/10 02:19:00;;;;;;;;;;;;;;;30.03;16.99;101882.00;5078858;28;857;-44
2022/02/10 02:21:25;;;;;;;;;;;;;;;30.06;16.92;101880.84;5079184;28;829;-43
2022/02/10 02:23:50;;;;;;;;;;;;;;;30.15;16.96;101884.34;5078669;28;980;-43
2022/02/10 02:26:22;;;;;;;;;;;;;;;30.06;16.93;101883.53;5078743;28;754;-43
2022/02/10 02:28:52;;;;;;;;;;;;;;;30.10;17.01;101886.72;5066942;28;918;-43
2022/02/10 02:31:19;;;;;;;;;;;;;;;30.13;17.06;101887.22;5078769;28;1894;-43
2022/02/10 03:08:46;;;;;;;;;;;;;;;29.47;17.88;101863.84;5076720;28;2672;-43
2022/02/10 03:11:13;;;;;;;;;;;;;;;29.68;17.78;101870.59;5076871;28;1961;-43
2022/02/10 03:14:06;;;;;;;;;;;;;;;29.47;17.87;101869.25;5071322;28;869;-43
2022/02/10 03:19:02;;;;;;;;;;;;;;;29.55;17.87;101877.38;5076652;28;828;-43
2022/02/10 04:02:20;;;;;;;;;;;;;;;29.19;18.52;101888.59;5076553;28;701;-44
2022/02/10 04:04:58;;;;;;;;;;;;;;;28.15;19.56;101890.53;5075932;28;2857;-43
2022/02/10 04:15:31;;;;;;;;;;;;;;;29.15;18.54;101879.97;5073214;28;2679;-44
2022/02/10 04:24:04;;;;;;;;;;;;;;;29.17;18.80;101883.34;5051142;28;1091;-43
2022/02/10 05:01:09;;;;;;;;;;;;;;;28.98;18.28;101910.78;5060659;28;1480;-45
2022/02/10 05:24:49;;;;;;;;;;;;;;;29.14;18.05;101920.78;5074374;28;1008;-43
2022/02/10 05:38:14;;;;;;;;;;;;;;;29.71;17.64;101938.06;5054181;28;1426;-42
2022/02/10 05:56:22;;;;;;;;;;;;;;;28.27;18.94;101947.91;5079006;28;674;-43
2022/02/10 06:52:54;;;;;;;;;;;;;;;27.32;16.69;101973.72;5076638;28;1921;-36
2022/02/10 07:44:31;;;;;;;;;;;;;;;28.62;17.42;101974.97;5074171;28;1274;-41
2022/02/10 07:49:09;;;;;;;;;;;;;;;28.96;16.54;101960.50;5073970;28;1139;-42
2022/02/10 07:54:21;;;;;;;;;;;;;;;29.17;16.18;101958.38;5075815;28;732;-41
2022/02/10 08:58:59;;;;;;;;;;;;;;;28.28;17.53;101965.81;5071727;28;1277;-39
2022/02/10 09:04:30;;;;;;;;;;;;;;;28.54;17.42;101978.50;5052116;28;1336;-39
2022/02/10 09:10:09;;;;;;;;;;;;;;;28.35;16.97;101985.00;5070687;28;1194;-37
2022/02/10 10:01:37;;;;;;;;;;;;;;;27.53;19.06;101907.72;5082962;28;1376;-38
2022/02/10 10:04:16;;;;;;;;;;;;;;;27.30;18.59;101902.78;5078344;28;1499;-39
2022/02/10 10:09:51;;;;;;;;;;;;;;;27.59;18.11;101894.38;5067423;28;1221;-40
2022/02/10 10:20:59;;;;;;;;;;;;;;;27.08;17.86;101867.16;5069947;28;1397;-39
2022/02/10 10:23:44;;;;;;;;;;;;;;;27.02;17.91;101872.19;5076018;28;1557;-40
2022/02/10 10:50:51;;;;;;;;;;;;;;;25.55;27.26;101826.06;5078463;28;792;-38
2022/02/10 10:55:58;;;;;;;;;;;;;;;25.66;24.40;101822.34;5077811;28;1330;-38
2022/02/10 11:36:26;;;;;;;;;;;;;;;21.37;27.43;101785.19;5066161;28;1969;-37
2022/02/10 11:37:40;;;;;;;;;;;;;;;25.69;22.30;101795.13;5018024;28;1558;-38
2022/02/10 11:40:14;;;;;;;;;;;;;;;25.80;21.98;101796.78;5073252;28;1405;-38
2022/02/10 11:42:51;;;;;;;;;;;;;;;25.88;22.50;101793.34;5076401;28;1091;-38
2022/02/10 12:42:15;;;;;;;;;;;;;;;27.58;20.91;101768.38;5053105;28;1343;-39
2022/02/10 13:31:03;;;;;;;;;;;;;;;26.76;19.69;101780.28;5033946;28;1502;-38
2022/02/10 14:14:16;;;;;;;;;;;;;;;22.19;27.99;101739.56;5070737;28;1198;-37
2022/02/10 14:17:00;;;;;;;;;;;;;;;25.55;22.60;101739.84;5074083;28;1539;-37
2022/02/10 14:19:38;;;;;;;;;;;;;;;26.48;21.19;101735.38;5073518;28;1325;-36
2022/02/10 14:27:18;;;;;;;;;;;;;;;27.16;20.66;101732.16;5073862;28;1141;-39
2022/02/10 14:29:43;;;;;;;;;;;;;;;27.47;21.11;101733.53;5074005;28;1398;-37
2022/02/10 14:32:10;;;;;;;;;;;;;;;27.22;20.83;101733.41;5073736;28;1902;-37
2022/02/10 14:34:36;;;;;;;;;;;;;;;27.44;20.54;101731.16;5074327;28;1320;-35
2022/02/10 14:39:54;;;;;;;;;;;;;;;27.30;21.05;101744.25;5073659;28;1194;-37
2022/02/10 15:17:50;;;;;;;;;;;;;;;26.50;22.18;101744.16;5076693;28;658;-38
2022/02/10 15:32:42;;;;;;;;;;;;;;;26.08;21.98;101742.84;5076860;28;1965;-37
2022/02/10 16:12:47;;;;;;;;;;;;;;;29.11;18.37;101745.88;5076215;28;1898;-39
2022/02/10 16:19:05;;;;;;;;;;;;;;;29.32;18.30;101748.00;5075008;28;1106;-39
2022/02/10 16:21:44;;;;;;;;;;;;;;;29.36;18.18;101748.50;5075846;28;1047;-41
2022/02/10 16:24:19;;;;;;;;;;;;;;;29.38;18.21;101753.75;5076274;28;1216;-40
2022/02/10 16:26:58;;;;;;;;;;;;;;;29.49;17.79;101750.66;5076070;28;1194;-41
2022/02/10 16:29:24;;;;;;;;;;;;;;;29.61;17.83;101751.16;5062544;28;1112;-41
2022/02/10 16:31:50;;;;;;;;;;;;;;;29.57;17.70;101752.50;5071967;28;1901;-38
2022/02/10 16:34:15;;;;;;;;;;;;;;;29.42;17.84;101755.09;5075727;28;1305;-40
2022/02/10 16:36:40;;;;;;;;;;;;;;;29.30;18.22;101757.31;5076132;28;1233;-40
2022/02/10 16:39:06;;;;;;;;;;;;;;;28.93;18.10;101751.44;5075651;28;1273;-41
2022/02/10 16:41:31;;;;;;;;;;;;;;;28.25;19.14;101752.41;5075102;28;1218;-38
2022/02/10 16:43:57;;;;;;;;;;;;;;;29.53;17.73;101754.69;5064274;28;1332;-39
2022/02/10 16:46:22;;;;;;;;;;;;;;;30.50;16.88;101750.97;5072388;28;1277;-39
2022/02/10 16:48:48;;;;;;;;;;;;;;;30.61;16.67;101750.56;5076202;28;1324;-39
2022/02/10 16:51:13;;;;;;;;;;;;;;;30.05;17.11;101747.03;5075475;28;2043;-39
2022/02/10 16:53:42;;;;;;;;;;;;;;;29.54;17.89;101742.00;5074126;28;1270;-44
2022/02/10 16:56:19;;;;;;;;;;;;;;;29.27;18.09;101746.84;5075382;28;959;-45
2022/02/10 16:59:23;;;;;;;;;;;;;;;29.27;17.35;101741.41;5075260;28;841;-35
2022/02/10 17:02:13;;;;;;;;;;;;;;;29.63;16.23;101743.69;5075737;28;1499;-42
2022/02/10 17:18:39;;;;;;;;;;;;;;;28.38;18.55;101738.41;5067338;28;1208;-42
2022/02/10 17:26:36;;;;;;;;;;;;;;;29.73;17.40;101756.19;5075777;28;792;-42
2022/02/10 17:29:11;;;;;;;;;;;;;;;29.74;17.33;101752.44;5074550;28;968;-41
2022/02/10 17:31:53;;;;;;;;;;;;;;;29.76;17.25;101753.94;5078921;28;1886;-43
2022/02/10 17:34:38;;;;;;;;;;;;;;;29.72;17.22;101749.06;5079413;28;852;-42
2022/02/10 17:37:15;;;;;;;;;;;;;;;28.43;18.70;101744.16;5079901;28;852;-41
2022/02/10 17:53:04;;;;;;;;;;;;;;;29.17;15.11;101736.19;5079732;28;1910;-44
2022/02/10 17:55:30;;;;;;;;;;;;;;;27.61;15.28;101732.09;5079075;28;865;-46
2022/02/10 17:57:55;;;;;;;;;;;;;;;27.07;15.39;101736.69;5074742;28;1071;-45
2022/02/10 18:00:23;;;;;;;;;;;;;;;26.78;15.72;101738.66;5079524;28;902;-44
2022/02/10 18:02:50;;;;;;;;;;;;;;;26.52;16.13;101733.22;5078971;28;835;-45
2022/02/10 18:05:44;;;;;;;;;;;;;;;26.58;17.28;101735.28;5079103;28;832;-42
2022/02/10 18:08:02;;;;;;;;;;;;;;;26.55;18.75;101723.94;5078991;28;1447;-41
2022/02/10 18:13:21;;;;;;;;;;;;;;;26.25;19.59;101726.84;5076406;28;1902;-42
2022/02/10 18:15:50;;;;;;;;;;;;;;;26.17;19.72;101725.75;5078879;28;1632;-42
2022/02/10 18:18:25;;;;;;;;;;;;;;;26.07;19.89;101732.22;5078608;28;797;-42
2022/02/10 18:20:59;;;;;;;;;;;;;;;25.97;20.21;101725.06;5078947;28;840;-41
2022/02/10 18:23:35;;;;;;;;;;;;;;;25.88;20.37;101725.94;5078236;28;1019;-42
2022/02/10 18:26:06;;;;;;;;;;;;;;;25.85;20.41;101723.56;5079250;28;859;-42
2022/02/10 18:28:50;;;;;;;;;;;;;;;25.81;20.74;101720.31;5078407;28;914;-42
2022/02/10 19:04:53;;;;;;;;;;;;;;;26.62;20.33;101701.59;5074270;28;780;-42
2022/02/10 19:07:18;;;;;;;;;;;;;;;25.73;21.27;101702.19;5077847;28;864;-41
2022/02/10 19:09:04;;;;;;;;;;;;;;;25.32;21.79;101702.50;5073251;28;1384;-41
2022/02/10 19:11:29;;;;;;;;;;;;;;;25.28;21.91;101695.72;5078037;28;1951;-41
2022/02/10 19:13:57;;;;;;;;;;;;;;;26.59;20.71;101704.56;5076798;28;871;-40
2022/02/10 19:16:24;;;;;;;;;;;;;;;27.16;20.12;101699.75;5077574;28;940;-40
2022/02/10 19:18:50;;;;;;;;;;;;;;;26.73;19.88;101703.19;5077841;28;817;-40
2022/02/10 19:21:15;;;;;;;;;;;;;;;25.69;21.34;101706.22;5077850;28;797;-41
2022/02/10 19:23:41;;;;;;;;;;;;;;;25.33;21.96;101714.13;5077895;28;1086;-40
2022/02/10 19:26:06;;;;;;;;;;;;;;;25.27;21.99;101713.72;5077580;28;818;-41
2022/02/10 19:28:31;;;;;;;;;;;;;;;26.74;20.77;101712.13;5077306;28;815;-41
2022/02/10 19:30:59;;;;;;;;;;;;;;;27.25;20.17;101711.47;5077655;28;809;-40
2022/02/10 19:33:24;;;;;;;;;;;;;;;26.87;20.04;101711.72;5077504;28;1926;-41
2022/02/10 19:35:52;;;;;;;;;;;;;;;25.67;21.34;101708.19;5077241;28;885;-41
2022/02/10 19:38:20;;;;;;;;;;;;;;;25.30;21.97;101707.19;5077527;28;963;-40
2022/02/10 19:40:50;;;;;;;;;;;;;;;25.22;22.11;101699.00;5070589;28;884;-39
2022/02/10 19:43:15;;;;;;;;;;;;;;;26.35;21.30;101703.38;5077411;28;906;-41
2022/02/10 19:45:41;;;;;;;;;;;;;;;27.20;20.47;101700.28;5077398;28;824;-42
2022/02/10 19:48:06;;;;;;;;;;;;;;;27.25;20.06;101703.38;5077112;28;761;-41
2022/02/10 19:50:32;;;;;;;;;;;;;;;26.31;20.43;101695.72;5076918;28;875;-43
2022/02/10 19:53:01;;;;;;;;;;;;;;;25.58;21.54;101698.28;5073799;28;1913;-41
2022/02/10 19:55:28;;;;;;;;;;;;;;;25.30;21.92;101696.41;5077227;28;848;-42
2022/02/10 19:58:02;;;;;;;;;;;;;;;26.09;21.51;101695.19;5076919;28;1087;-40
2022/02/10 20:00:33;;;;;;;;;;;;;;;26.86;20.46;101691.97;5077026;28;826;-41
2022/02/10 20:02:59;;;;;;;;;;;;;;;27.15;20.10;101684.56;5077168;28;1521;-41
2022/02/10 20:05:25;;;;;;;;;;;;;;;26.25;20.49;101689.09;5076276;28;857;-40
2022/02/10 20:07:54;;;;;;;;;;;;;;;25.51;21.45;101681.84;5076999;28;794;-42
2022/02/10 20:10:19;;;;;;;;;;;;;;;25.27;21.93;101681.41;5076981;28;845;-41
2022/02/10 20:12:44;;;;;;;;;;;;;;;25.14;22.38;101683.59;5075707;28;1943;-40
2022/02/10 20:15:12;;;;;;;;;;;;;;;26.26;21.32;101679.97;5076548;28;826;-41
2022/02/10 20:17:37;;;;;;;;;;;;;;;26.88;20.21;101678.31;5077423;28;856;-41
2022/02/10 20:20:03;;;;;;;;;;;;;;;26.89;20.17;101680.84;5073318;28;840;-40
2022/02/10 20:22:33;;;;;;;;;;;;;;;26.75;20.41;101674.19;5076538;28;907;-41
2022/02/10 20:24:59;;;;;;;;;;;;;;;25.61;21.77;101684.53;5076743;28;1015;-40
2022/02/10 20:27:24;;;;;;;;;;;;;;;25.45;22.19;101672.53;5074158;28;867;-41
2022/02/10 20:29:50;;;;;;;;;;;;;;;26.59;21.16;101668.66;5072948;28;881;-42
2022/02/10 20:32:15;;;;;;;;;;;;;;;26.51;20.65;101669.44;5070125;28;1890;-42
2022/02/10 20:34:41;;;;;;;;;;;;;;;25.62;21.67;101670.03;5075986;28;1056;-41
2022/02/10 20:37:06;;;;;;;;;;;;;;;25.35;22.21;101660.97;5076716;28;754;-40
2022/02/10 20:39:32;;;;;;;;;;;;;;;25.16;22.19;101677.03;5076193;28;906;-40
2022/02/10 20:42:05;;;;;;;;;;;;;;;26.38;21.62;101670.69;5076351;28;810;-40
2022/02/10 20:44:30;;;;;;;;;;;;;;;26.85;20.68;101670.53;5073155;28;1013;-40
2022/02/10 20:46:56;;;;;;;;;;;;;;;26.98;20.37;101664.69;5076443;28;809;-40
2022/02/10 20:49:27;;;;;;;;;;;;;;;25.88;21.36;101664.81;5075864;28;935;-41
2022/02/10 20:51:52;;;;;;;;;;;;;;;25.28;22.11;101661.56;5076609;28;1910;-40
2022/02/10 20:54:18;;;;;;;;;;;;;;;25.16;22.42;101665.41;5076059;28;862;-42
2022/02/10 20:56:45;;;;;;;;;;;;;;;26.40;21.77;101662.44;5069734;28;1460;-41
2022/02/10 21:02:19;;;;;;;;;;;;;;;26.30;20.88;101665.19;5014193;28;1265;-40
2022/02/10 21:05:15;;;;;;;;;;;;;;;25.55;21.84;101653.63;5065690;28;1129;-41
2022/02/10 21:07:41;;;;;;;;;;;;;;;25.23;22.32;101665.69;5077181;28;1627;-40
2022/02/10 21:10:12;;;;;;;;;;;;;;;25.32;22.41;101659.41;5072667;28;868;-40
2022/02/10 21:12:39;;;;;;;;;;;;;;;26.37;21.47;101658.22;5075829;28;1960;-41
2022/02/10 21:15:08;;;;;;;;;;;;;;;26.90;20.48;101655.56;5076479;28;832;-41
2022/02/10 21:17:34;;;;;;;;;;;;;;;26.59;20.97;101653.31;5075863;28;997;-41
2022/02/10 21:20:00;;;;;;;;;;;;;;;25.41;22.25;101650.44;5075556;28;754;-41
2022/02/10 21:22:27;;;;;;;;;;;;;;;25.42;22.61;101645.91;5075271;28;784;-41
2022/02/10 21:25:25;;;;;;;;;;;;;;;26.50;21.42;101655.13;5075297;28;1007;-40
2022/02/10 21:27:46;;;;;;;;;;;;;;;26.86;20.96;101643.38;5068652;28;1633;-41
2022/02/10 21:30:12;;;;;;;;;;;;;;;25.97;22.24;101632.53;5069315;28;778;-41
2022/02/10 21:32:44;;;;;;;;;;;;;;;25.75;22.49;101630.16;5075170;28;1901;-42
2022/02/10 21:35:24;;;;;;;;;;;;;;;25.57;22.76;101627.41;5075454;28;800;-41
2022/02/10 22:01:51;;;;;;;;;;;;;;;26.57;21.37;101595.13;5072976;28;836;-40
2022/02/10 22:07:43;;;;;;;;;;;;;;;25.66;22.59;101594.16;5073233;28;942;-42
2022/02/10 22:09:33;;;;;;;;;;;;;;;25.80;22.63;101592.81;5069591;28;1479;-41
2022/02/10 22:17:30;;;;;;;;;;;;;;;27.01;21.12;101577.97;5076379;28;623;-41
2022/02/10 22:20:07;;;;;;;;;;;;;;;26.13;21.71;101569.81;5078929;28;1289;-39
2022/02/10 22:22:36;;;;;;;;;;;;;;;25.66;22.57;101569.91;5079102;28;789;-42
2022/02/10 22:25:06;;;;;;;;;;;;;;;25.76;22.45;101574.38;5078227;28;790;-42
2022/02/10 22:27:36;;;;;;;;;;;;;;;26.46;21.88;101566.56;5078468;28;945;-42
2022/02/10 22:30:08;;;;;;;;;;;;;;;26.92;21.54;101568.16;5079099;28;881;-40
2022/02/10 22:32:50;;;;;;;;;;;;;;;27.02;20.80;101567.06;5078208;28;1902;-42
2022/02/10 22:35:16;;;;;;;;;;;;;;;26.03;21.86;101565.38;5079108;28;884;-40
2022/02/10 22:37:42;;;;;;;;;;;;;;;25.79;22.24;101557.94;5079014;28;778;-40
2022/02/10 22:40:22;;;;;;;;;;;;;;;25.62;22.33;101560.44;5073239;28;909;-41
2022/02/10 22:42:48;;;;;;;;;;;;;;;26.35;22.08;101557.72;5078827;28;918;-42
2022/02/10 22:45:14;;;;;;;;;;;;;;;26.77;21.56;101545.31;5078863;28;904;-42
2022/02/10 22:47:39;;;;;;;;;;;;;;;27.01;20.95;101550.97;5078363;28;974;-42
2022/02/10 22:50:05;;;;;;;;;;;;;;;26.84;21.22;101550.88;5078189;28;877;-41
2022/02/10 22:52:30;;;;;;;;;;;;;;;26.07;21.85;101555.13;5077881;28;1909;-41
2022/02/10 22:54:55;;;;;;;;;;;;;;;25.84;22.37;101557.47;5078177;28;830;-41
2022/02/10 22:57:21;;;;;;;;;;;;;;;26.07;22.29;101555.13;5077667;28;926;-41
2022/02/10 22:59:46;;;;;;;;;;;;;;;26.87;21.04;101541.63;5078631;28;860;-42
2022/02/10 23:05:14;;;;;;;;;;;;;;;26.53;21.57;101535.22;5077798;28;721;-40
2022/02/10 23:07:39;;;;;;;;;;;;;;;26.03;22.00;101533.03;5078200;28;881;-42
2022/02/10 23:12:45;;;;;;;;;;;;;;;26.07;22.28;101530.88;5077689;28;1959;-40
2022/02/10 23:15:10;;;;;;;;;;;;;;;26.66;21.71;101526.69;5078001;28;917;-42
2022/02/10 23:17:36;;;;;;;;;;;;;;;26.85;21.50;101522.91;5076421;28;873;-40
2022/02/10 23:20:02;;;;;;;;;;;;;;;26.66;21.58;101510.50;5078161;28;838;-41
2022/02/10 23:22:27;;;;;;;;;;;;;;;26.08;21.81;101510.97;5078033;28;794;-41
2022/02/10 23:24:53;;;;;;;;;;;;;;;25.82;22.17;101505.56;5077493;28;953;-39
2022/02/10 23:27:18;;;;;;;;;;;;;;;25.66;22.67;101507.09;5077249;28;920;-41
2022/02/10 23:29:43;;;;;;;;;;;;;;;25.76;22.59;101505.16;5077473;28;861;-41
2022/02/10 23:32:10;;;;;;;;;;;;;;;26.50;21.82;101497.78;5076771;28;1960;-41
2022/02/10 23:34:36;;;;;;;;;;;;;;;26.84;21.22;101490.69;5077954;28;861;-40
2022/02/10 23:37:01;;;;;;;;;;;;;;;26.90;21.38;101488.19;5077496;28;798;-40
2022/02/10 23:39:30;;;;;;;;;;;;;;;27.13;20.82;101490.28;5077339;28;1006;-41
2022/02/10 23:42:03;;;;;;;;;;;;;;;27.20;20.73;101484.22;5077395;28;808;-41
2022/02/10 23:44:32;;;;;;;;;;;;;;;27.36;20.63;101484.25;5077373;28;938;-41
2022/02/10 23:46:59;;;;;;;;;;;;;;;26.91;20.88;101478.19;5077623;28;896;-41
2022/02/10 23:49:25;;;;;;;;;;;;;;;26.49;21.66;101486.13;5077626;28;809;-40
2022/02/10 23:51:57;;;;;;;;;;;;;;;26.82;21.31;101474.66;5077477;28;1922;-41
2022/02/10 23:54:23;;;;;;;;;;;;;;;26.88;21.15;101465.03;5075018;28;821;-41
2022/02/10 23:56:59;;;;;;;;;;;;;;;26.37;21.77;101463.16;5075550;28;759;-39
